Time;durP1;ratioP1;P1;durP2;ratioP2;P2;SDS_P1;SDS_P2;PMS_P1;PMS_P2;Temp;Humidity;BMP_temperature;BMP_pressure;BME280_temperature;BME280_humidity;BME280_pressure;Samples;Min_cycle;Max_cycle;Signal;HPM_P1;HPM_P2
2023/04/30 00:02:23;;;;;;;5.87;5.37;;;;;;;21.31;37.00;94745.34;5939286;23;109040;-61
2023/04/30 00:05:27;;;;;;;5.73;5.23;;;;;;;21.30;36.94;94739.22;5938065;29;108998;-61
2023/04/30 00:08:30;;;;;;;5.50;5.10;;;;;;;21.27;36.81;94739.84;5935874;29;108957;-61
2023/04/30 00:11:34;;;;;;;6.07;5.57;;;;;;;21.28;36.87;94746.75;5934390;29;108967;-62
2023/04/30 00:14:37;;;;;;;5.70;5.30;;;;;;;21.28;36.81;94740.63;5933230;29;108968;-61
2023/04/30 00:17:40;;;;;;;5.67;5.27;;;;;;;21.27;37.01;94741.72;5916826;29;109064;-65
2023/04/30 00:20:43;;;;;;;5.10;4.70;;;;;;;21.25;36.78;94738.59;5916449;29;109007;-62
2023/04/30 00:23:46;;;;;;;5.23;4.83;;;;;;;21.26;36.86;94742.81;5898952;29;109093;-62
2023/04/30 00:26:51;;;;;;;5.57;5.07;;;;;;;21.20;36.74;94727.00;5923301;29;109067;-62
2023/04/30 00:29:54;;;;;;;4.80;4.50;;;;;;;21.22;36.88;94734.66;5924025;29;108922;-61
2023/04/30 00:32:58;;;;;;;4.93;4.53;;;;;;;21.25;36.50;94739.38;5915192;29;108977;-61
2023/04/30 00:36:01;;;;;;;5.10;4.70;;;;;;;21.23;36.78;94744.22;5921862;29;111008;-61
2023/04/30 00:39:04;;;;;;;5.17;4.77;;;;;;;21.24;36.62;94743.13;5936708;29;108964;-62
2023/04/30 00:42:09;;;;;;;7.07;4.87;;;;;;;21.24;36.46;94737.03;5929077;29;108913;-61
2023/04/30 00:45:12;;;;;;;5.53;5.13;;;;;;;21.23;36.28;94738.91;5913505;29;108935;-61
2023/04/30 00:48:15;;;;;;;5.00;4.60;;;;;;;21.21;36.84;94739.22;5923063;29;108944;-61
2023/04/30 00:51:18;;;;;;;4.90;4.57;;;;;;;21.24;36.55;94737.81;5923549;29;108874;-61
2023/04/30 00:54:21;;;;;;;5.13;4.73;;;;;;;21.20;36.63;94736.84;5923066;29;108850;-61
2023/04/30 00:57:27;;;;;;;5.53;5.13;;;;;;;21.23;36.78;94738.13;5926212;29;110306;-62
2023/04/30 01:00:30;;;;;;;5.37;4.97;;;;;;;21.18;36.37;94733.72;5941054;29;108958;-60
2023/04/30 01:03:34;;;;;;;5.07;4.67;;;;;;;21.20;36.96;94739.53;5928672;29;110003;-61
2023/04/30 01:06:38;;;;;;;4.83;4.43;;;;;;;21.20;36.53;94736.84;5922109;29;108966;-61
2023/04/30 01:09:41;;;;;;;5.37;4.97;;;;;;;21.21;36.53;94739.22;5925926;29;108934;-63
2023/04/30 01:12:53;;;;;;;4.70;4.40;;;;;;;21.20;36.59;94734.19;5949308;29;109026;-61
2023/04/30 01:16:03;;;;;;;4.70;4.30;;;;;;;21.20;36.57;94734.97;5941455;29;108949;-60
2023/04/30 01:19:18;;;;;;;4.53;4.17;;;;;;;21.21;36.24;94733.09;5916302;29;109094;-61
2023/04/30 01:22:35;;;;;;;4.73;4.40;;;;;;;21.18;36.77;94731.84;5931231;29;108871;-60
2023/04/30 01:25:51;;;;;;;4.10;3.80;;;;;;;21.20;36.49;94731.53;5943302;29;109042;-60
2023/04/30 01:28:58;;;;;;;4.80;4.40;;;;;;;21.17;36.21;94721.47;5926611;29;108943;-60
2023/04/30 01:32:02;;;;;;;4.37;4.07;;;;;;;21.20;36.60;94731.53;5919091;29;108915;-60
2023/04/30 01:35:06;;;;;;;4.80;4.37;;;;;;;21.20;36.34;94732.31;5928247;29;109039;-60
2023/04/30 01:38:18;;;;;;;5.07;4.67;;;;;;;21.24;36.34;94735.16;5935200;29;108803;-60
2023/04/30 01:41:31;;;;;;;5.53;5.03;;;;;;;21.18;36.64;94736.38;5916649;29;108994;-62
2023/04/30 01:44:49;;;;;;;5.77;5.27;;;;;;;21.10;36.40;94721.94;5926048;29;108922;-61
2023/04/30 01:47:58;;;;;;;6.20;5.70;;;;;;;21.21;36.25;94741.88;5937318;29;108886;-61
2023/04/30 01:51:08;;;;;;;6.60;6.10;;;;;;;21.19;36.48;94736.06;5938365;29;109057;-61
2023/04/30 01:54:20;;;;;;;5.63;5.23;;;;;;;21.20;36.52;94736.84;5917957;29;109383;-61
2023/04/30 01:57:28;;;;;;;6.90;6.40;;;;;;;21.17;36.17;94732.94;5926882;29;108878;-60
2023/04/30 02:00:33;;;;;;;7.40;6.80;;;;;;;21.19;36.35;94729.97;5937856;29;108993;-60
2023/04/30 02:03:36;;;;;;;7.73;7.03;;;;;;;21.17;36.61;94724.13;5922755;29;109429;-61
2023/04/30 02:06:40;;;;;;;7.60;7.00;;;;;;;21.19;36.41;94733.41;5930204;29;109261;-60
2023/04/30 02:09:43;;;;;;;7.63;7.03;;;;;;;21.17;36.14;94732.13;5938349;29;108932;-61
2023/04/30 02:12:46;;;;;;;8.70;7.93;;;;;;;21.15;36.71;94727.13;5932350;29;108935;-60
2023/04/30 02:15:51;;;;;;;8.07;7.33;;;;;;;21.18;36.13;94728.41;5928965;29;110616;-61
2023/04/30 02:18:54;;;;;;;10.10;9.20;;;;;;;21.15;36.58;94729.00;5933197;29;108925;-60
2023/04/30 02:21:57;;;;;;;8.93;8.23;;;;;;;21.09;36.24;94719.59;5925928;29;108929;-61
2023/04/30 02:25:00;;;;;;;10.20;9.40;;;;;;;21.08;36.23;94718.03;5925285;29;108935;-60
2023/04/30 02:28:04;;;;;;;10.40;9.50;;;;;;;21.13;36.26;94731.19;5916826;29;108906;-61
2023/04/30 02:31:08;;;;;;;11.23;10.33;;;;;;;21.17;36.21;94730.28;5925238;29;108992;-61
2023/04/30 02:34:11;;;;;;;12.93;11.80;;;;;;;21.14;36.52;94730.88;5934696;29;108945;-60
2023/04/30 02:37:14;;;;;;;11.77;10.77;;;;;;;21.14;36.36;94732.75;5925365;29;108956;-61
2023/04/30 02:40:18;;;;;;;13.10;12.00;;;;;;;21.12;36.25;94733.06;5933115;29;110854;-61
2023/04/30 02:43:21;;;;;;;12.57;11.47;;;;;;;21.10;36.33;94729.13;5935873;29;108917;-62
2023/04/30 02:46:25;;;;;;;13.43;12.27;;;;;;;21.12;36.55;94733.06;5925175;29;108928;-61
2023/04/30 02:49:28;;;;;;;13.57;12.37;;;;;;;21.11;36.56;94734.16;5926778;29;109123;-61
2023/04/30 02:52:32;;;;;;;14.73;13.43;;;;;;;21.12;36.27;94734.94;5947135;29;109013;-60
2023/04/30 02:55:35;;;;;;;13.27;12.17;;;;;;;21.11;36.28;94744.00;5939941;29;108931;-61
2023/04/30 02:58:38;;;;;;;14.10;12.90;;;;;;;21.12;36.46;94745.56;5947240;29;108928;-61
2023/04/30 03:01:42;;;;;;;14.70;13.50;;;;;;;21.03;36.42;94734.88;5923388;29;108919;-61
2023/04/30 03:04:45;;;;;;;16.00;14.60;;;;;;;21.13;36.38;94749.81;5924934;29;109115;-62
2023/04/30 03:07:48;;;;;;;16.00;14.60;;;;;;;21.13;36.17;94753.25;5924828;29;109044;-62
2023/04/30 03:10:52;;;;;;;16.50;15.00;;;;;;;21.09;36.28;94749.63;5932631;29;109001;-60
2023/04/30 03:13:55;;;;;;;17.03;15.60;;;;;;;21.10;36.27;94748.53;5925855;29;108931;-61
2023/04/30 03:16:59;;;;;;;18.60;17.00;;;;;;;21.12;36.45;94745.56;5947021;29;108958;-61
2023/04/30 03:20:02;;;;;;;16.87;15.47;;;;;;;21.09;36.21;94746.97;5937723;29;108864;-62
2023/04/30 03:23:05;;;;;;;17.57;15.97;;;;;;;21.09;36.07;94754.97;5929232;29;110030;-62
2023/04/30 03:26:08;;;;;;;18.10;16.70;;;;;;;21.09;36.26;94748.84;5941725;29;109359;-61
2023/04/30 03:29:11;;;;;;;17.87;16.27;;;;;;;21.06;36.24;94757.44;5929529;29;108829;-62
2023/04/30 03:32:16;;;;;;;17.63;16.13;;;;;;;21.07;36.17;94764.34;5924152;29;108994;-60
2023/04/30 03:35:19;;;;;;;18.77;17.07;;;;;;;21.08;35.98;94760.59;5914741;29;108902;-63
2023/04/30 03:38:22;;;;;;;19.37;17.67;;;;;;;21.08;36.02;94757.94;5943506;29;108901;-62
2023/04/30 03:41:25;;;;;;;19.50;17.70;;;;;;;21.06;36.23;94766.22;5930753;29;108914;-61
2023/04/30 03:44:28;;;;;;;18.50;17.03;;;;;;;21.03;36.42;94756.16;5934874;29;109140;-62
2023/04/30 03:47:33;;;;;;;21.67;19.67;;;;;;;21.07;36.04;94772.31;5918528;29;109785;-61
2023/04/30 03:50:36;;;;;;;20.40;18.60;;;;;;;21.06;36.43;94776.06;5947015;29;108938;-61
2023/04/30 03:53:39;;;;;;;21.10;19.30;;;;;;;21.05;36.23;94772.63;5945800;29;108883;-60
2023/04/30 03:56:43;;;;;;;21.13;19.43;;;;;;;21.06;36.13;94778.72;5944095;29;108887;-60
2023/04/30 03:59:46;;;;;;;22.07;20.17;;;;;;;21.03;36.23;94774.78;5913915;29;109088;-63
2023/04/30 04:02:51;;;;;;;21.20;19.30;;;;;;;21.00;35.96;94769.25;5931277;29;109143;-61
2023/04/30 04:05:54;;;;;;;22.17;20.37;;;;;;;21.06;36.32;94778.72;5945537;29;109258;-62
2023/04/30 04:08:57;;;;;;;22.10;20.00;;;;;;;21.07;36.40;94782.97;5932293;29;108915;-60
2023/04/30 04:12:01;;;;;;;20.53;18.83;;;;;;;21.07;36.08;94782.97;5920681;29;109159;-61
2023/04/30 04:15:05;;;;;;;22.10;20.20;;;;;;;21.04;36.26;94786.22;5909127;29;109016;-62
2023/04/30 04:18:09;;;;;;;21.57;19.77;;;;;;;21.05;36.22;94785.94;5932021;29;108993;-64
2023/04/30 04:21:13;;;;;;;21.20;19.30;;;;;;;21.05;36.42;94783.28;5899970;29;109429;-61
2023/04/30 04:24:16;;;;;;;21.30;19.50;;;;;;;21.04;36.32;94789.66;5920947;29;109014;-61
2023/04/30 04:27:19;;;;;;;21.17;19.37;;;;;;;21.04;35.91;94794.97;5944763;29;108917;-65
2023/04/30 04:30:22;;;;;;;20.73;18.93;;;;;;;21.03;36.10;94801.38;5935790;29;108844;-61
2023/04/30 04:33:26;;;;;;;20.97;19.13;;;;;;;21.02;36.27;94793.72;5920514;29;108965;-60
2023/04/30 04:36:30;;;;;;;21.47;19.57;;;;;;;21.01;36.09;94798.25;5927194;29;109079;-60
2023/04/30 04:39:35;;;;;;;21.67;19.77;;;;;;;21.01;36.21;94802.78;5928056;29;109073;-61
2023/04/30 04:42:38;;;;;;;19.97;18.17;;;;;;;21.03;35.93;94804.03;5913409;29;108966;-60
2023/04/30 04:45:41;;;;;;;19.87;18.13;;;;;;;20.93;36.18;94791.78;5941646;29;108989;-60
2023/04/30 04:48:46;;;;;;;20.30;18.50;;;;;;;21.03;36.17;94813.91;5930397;29;109120;-60
2023/04/30 04:51:49;;;;;;;20.30;18.60;;;;;;;21.05;36.32;94811.75;5928727;29;109001;-61
2023/04/30 04:54:52;;;;;;;20.63;18.87;;;;;;;21.04;36.25;94813.59;5916645;29;109342;-60
2023/04/30 04:57:55;;;;;;;19.60;18.00;;;;;;;21.04;36.11;94815.47;5934755;29;108983;-60
2023/04/30 05:00:58;;;;;;;18.70;17.00;;;;;;;21.02;36.30;94815.00;5926725;29;108872;-61
2023/04/30 05:04:03;;;;;;;19.33;17.70;;;;;;;21.04;36.16;94820.78;5929768;29;109113;-60
2023/04/30 05:07:06;;;;;;;19.30;17.60;;;;;;;21.04;35.96;94828.78;5917521;29;109324;-60
2023/04/30 05:10:10;;;;;;;19.80;18.00;;;;;;;21.03;36.35;94819.22;5924919;29;109043;-61
2023/04/30 05:13:13;;;;;;;19.17;17.37;;;;;;;21.01;36.21;94824.06;5926837;29;108922;-61
2023/04/30 05:16:16;;;;;;;17.43;16.03;;;;;;;21.01;36.21;94824.84;5930032;29;108963;-61
2023/04/30 05:19:21;;;;;;;17.93;16.33;;;;;;;20.97;36.06;94812.44;5917165;29;108961;-60
2023/04/30 05:22:24;;;;;;;18.00;16.40;;;;;;;21.00;36.17;94823.25;5927345;29;108936;-61
2023/04/30 05:25:28;;;;;;;17.40;15.90;;;;;;;21.00;36.01;94819.81;5924748;29;109281;-61
2023/04/30 05:28:32;;;;;;;17.47;15.97;;;;;;;21.02;36.09;94817.66;5922839;29;108871;-62
2023/04/30 05:31:35;;;;;;;15.83;13.87;;;;;;;20.93;36.47;94815.72;5929657;29;108905;-64
2023/04/30 05:34:40;;;;;;;12.47;11.37;;;;;;;20.96;36.32;94816.19;5941074;29;109078;-63
2023/04/30 05:37:43;;;;;;;13.10;11.87;;;;;;;20.92;36.46;94818.69;5927447;29;108933;-63
2023/04/30 05:40:46;;;;;;;10.90;9.67;;;;;;;20.87;36.45;94811.59;5929524;29;108937;-66
2023/04/30 05:43:49;;;;;;;10.40;9.50;;;;;;;20.96;36.65;94821.50;5939601;29;109001;-63
2023/04/30 05:46:52;;;;;;;8.57;7.83;;;;;;;20.93;36.44;94828.22;5948907;29;109147;-62
2023/04/30 05:49:57;;;;;;;9.90;9.00;;;;;;;20.92;35.94;94816.00;5947511;29;109317;-63
2023/04/30 05:53:00;;;;;;;11.30;8.43;;;;;;;20.94;36.26;94824.47;5927367;29;108915;-63
2023/04/30 05:56:03;;;;;;;11.80;8.50;;;;;;;20.90;36.41;94813.66;5946783;29;108931;-64
2023/04/30 05:59:07;;;;;;;8.40;7.60;;;;;;;20.92;36.07;94821.34;5936802;29;109045;-63
2023/04/30 06:02:10;;;;;;;8.50;7.80;;;;;;;20.88;35.81;94815.06;5928439;29;109980;-64
2023/04/30 06:05:14;;;;;;;8.03;7.30;;;;;;;20.89;36.05;94827.25;5942456;29;108947;-62
2023/04/30 06:08:18;;;;;;;7.93;7.23;;;;;;;20.87;36.19;94824.91;5947422;29;108915;-62
2023/04/30 06:11:21;;;;;;;8.33;7.17;;;;;;;20.86;35.99;94835.84;5948842;29;108935;-63
2023/04/30 06:14:24;;;;;;;8.60;7.70;;;;;;;20.85;36.20;94832.41;5938820;29;109031;-62
2023/04/30 06:17:27;;;;;;;8.43;7.73;;;;;;;20.83;36.22;94834.56;5949169;29;108904;-62
2023/04/30 06:20:32;;;;;;;11.83;10.83;;;;;;;20.77;36.36;94835.78;5939400;29;109301;-64
2023/04/30 06:23:36;;;;;;;8.63;7.83;;;;;;;20.87;36.39;94832.88;5913723;29;108933;-63
2023/04/30 06:26:39;;;;;;;13.80;8.27;;;;;;;20.87;37.00;94840.88;5909622;29;110263;-63
2023/04/30 06:29:42;;;;;;;67.20;40.47;;;;;;;20.90;36.94;94840.25;5929226;29;108973;-62
2023/04/30 06:32:45;;;;;;;88.97;51.60;;;;;;;20.91;37.24;94836.50;5932743;29;108949;-62
2023/04/30 06:35:53;;;;;;;49.07;33.63;;;;;;;20.93;38.17;94839.66;5924083;29;108976;-62
2023/04/30 06:38:56;;;;;;;39.60;29.63;;;;;;;21.01;36.97;94834.69;5919235;29;109945;-63
2023/04/30 06:41:59;;;;;;;38.73;25.50;;;;;;;21.04;37.25;94842.06;5935414;29;108732;-63
2023/04/30 06:45:03;;;;;;;30.30;21.90;;;;;;;21.08;37.93;94845.72;5921753;29;108929;-62
2023/04/30 06:48:06;;;;;;;25.63;19.13;;;;;;;21.12;38.46;94847.47;5926703;29;108972;-64
2023/04/30 06:51:11;;;;;;;30.87;22.93;;;;;;;21.17;38.54;94844.69;5918267;29;109064;-62
2023/04/30 06:54:14;;;;;;;25.90;20.30;;;;;;;21.20;38.51;94849.41;5925697;29;108895;-61
2023/04/30 06:57:17;;;;;;;32.43;24.13;;;;;;;21.23;38.46;94848.00;5929428;29;108943;-63
2023/04/30 07:00:20;;;;;;;24.23;21.63;;;;;;;21.16;38.58;94845.75;5917109;29;109397;-63
2023/04/30 07:03:24;;;;;;;18.50;16.50;;;;;;;21.17;37.48;94851.88;5923997;29;109101;-67
2023/04/30 07:06:29;;;;;;;20.23;17.70;;;;;;;21.16;37.21;94842.31;5925354;29;108938;-62
2023/04/30 07:09:32;;;;;;;19.73;17.70;;;;;;;21.16;37.38;94843.09;5924922;29;108951;-62
2023/04/30 07:12:35;;;;;;;20.37;16.73;;;;;;;21.15;37.17;94846.06;5914094;29;108909;-61
2023/04/30 07:15:38;;;;;;;16.03;14.47;;;;;;;21.15;37.56;94854.03;5924673;29;109041;-61
2023/04/30 07:18:42;;;;;;;16.63;14.83;;;;;;;21.13;37.10;94849.03;5924892;29;108943;-61
2023/04/30 07:21:47;;;;;;;18.13;16.03;;;;;;;21.17;37.04;94858.00;5919558;29;108906;-61
2023/04/30 07:24:50;;;;;;;14.80;13.30;;;;;;;21.12;37.21;94849.34;5918508;29;109069;-62
2023/04/30 07:27:53;;;;;;;15.03;12.90;;;;;;;21.08;36.96;94851.03;5924788;29;109090;-62
2023/04/30 07:30:56;;;;;;;13.23;12.03;;;;;;;21.05;37.19;94843.66;5924109;29;109243;-62
2023/04/30 07:33:59;;;;;;;15.37;13.57;;;;;;;21.04;37.31;94842.06;5914318;29;108913;-62
2023/04/30 07:37:03;;;;;;;15.20;12.00;;;;;;;21.05;37.17;94841.00;5924819;29;108930;-62
2023/04/30 07:40:11;;;;;;;12.57;10.30;;;;;;;21.02;37.04;94852.22;5924452;29;108546;-63
2023/04/30 07:43:21;;;;;;;13.50;12.10;;;;;;;21.05;37.55;94854.31;5921370;29;108936;-62
2023/04/30 07:46:24;;;;;;;16.63;15.10;;;;;;;20.93;37.41;94831.66;5913817;29;109176;-65
2023/04/30 07:49:28;;;;;;;15.17;13.70;;;;;;;21.14;38.04;94855.13;5924312;29;108810;-63
2023/04/30 07:52:33;;;;;;;16.50;15.17;;;;;;;21.19;37.65;94871.00;5923167;29;109313;-59
2023/04/30 07:55:36;;;;;;;15.00;13.60;;;;;;;21.16;37.53;94860.94;5916769;29;108954;-62
2023/04/30 07:58:39;;;;;;;14.50;13.10;;;;;;;21.20;37.68;94856.59;5894329;29;109018;-61
2023/04/30 08:01:42;;;;;;;16.20;12.60;;;;;;;21.18;38.31;94856.13;5915277;29;109088;-63
2023/04/30 08:04:45;;;;;;;23.43;16.07;;;;;;;21.20;38.47;94856.59;5926812;29;108927;-63
2023/04/30 08:07:50;;;;;;;19.83;15.20;;;;;;;21.23;38.04;94858.66;5933908;29;109312;-64
2023/04/30 08:10:53;;;;;;;15.93;13.33;;;;;;;21.24;38.27;94857.56;5926427;29;109928;-63
2023/04/30 08:13:56;;;;;;;14.27;12.80;;;;;;;21.39;38.14;94861.72;5927816;29;109010;-63
2023/04/30 08:17:01;;;;;;;14.70;13.10;;;;;;;21.45;39.01;94857.81;5927748;29;108979;-63
2023/04/30 08:20:05;;;;;;;13.70;12.47;;;;;;;21.42;39.29;94856.56;5916769;29;109166;-63
2023/04/30 08:23:10;;;;;;;13.50;12.10;;;;;;;21.45;39.09;94858.59;5927351;29;109227;-64
2023/04/30 08:26:13;;;;;;;12.33;11.23;;;;;;;21.50;39.83;94855.81;5928381;29;110061;-62
2023/04/30 08:29:16;;;;;;;12.27;11.07;;;;;;;21.49;39.32;94854.22;5931441;29;108887;-70
2023/04/30 08:32:19;;;;;;;13.43;11.07;;;;;;;21.50;39.57;94855.03;5925120;29;109532;-62
2023/04/30 08:35:23;;;;;;;11.93;10.70;;;;;;;21.52;39.58;94858.97;5927707;29;109134;-64
2023/04/30 08:38:28;;;;;;;10.67;9.43;;;;;;;21.49;39.19;94856.91;5927825;29;108926;-63
2023/04/30 08:41:33;;;;;;;10.47;9.53;;;;;;;21.47;38.82;94855.63;5921058;29;109332;-63
2023/04/30 08:44:42;;;;;;;11.33;10.23;;;;;;;21.43;38.85;94858.13;5907608;29;109004;-62
2023/04/30 08:47:46;;;;;;;10.40;9.17;;;;;;;21.41;38.94;94856.88;5927077;29;108851;-62
2023/04/30 08:50:49;;;;;;;10.20;9.20;;;;;;;21.41;39.29;94848.88;5926377;29;108934;-62
2023/04/30 08:53:55;;;;;;;9.70;8.90;;;;;;;21.43;39.10;94863.44;5916656;29;109265;-62
2023/04/30 08:56:58;;;;;;;9.97;9.00;;;;;;;21.39;39.23;94851.84;5919516;29;108920;-62
2023/04/30 09:00:02;;;;;;;9.00;8.10;;;;;;;21.36;38.90;94852.47;5931496;29;109039;-62
2023/04/30 09:03:05;;;;;;;9.70;8.70;;;;;;;21.36;38.89;94843.69;5925504;29;109079;-69
2023/04/30 09:06:09;;;;;;;8.80;8.00;;;;;;;21.36;38.80;94839.16;5923684;29;109885;-63
2023/04/30 09:09:15;;;;;;;8.57;7.70;;;;;;;21.35;38.92;94826.16;5927159;29;108959;-63
2023/04/30 09:12:19;;;;;;;9.27;8.40;;;;;;;21.43;39.67;94838.72;5920621;29;108986;-63
2023/04/30 09:15:22;;;;;;;8.60;7.90;;;;;;;21.51;39.52;94828.13;5909743;29;108901;-63
2023/04/30 09:18:25;;;;;;;7.07;6.43;;;;;;;21.30;37.94;94828.94;5934240;29;109029;-64
2023/04/30 09:21:32;;;;;;;7.13;5.30;;;;;;;20.79;36.29;94822.97;5925577;29;108863;-63
2023/04/30 09:24:46;;;;;;;6.20;5.60;;;;;;;20.78;36.70;94815.28;5937206;29;108926;-63
2023/04/30 09:28:07;;;;;;;5.30;4.80;;;;;;;21.12;36.45;94818.19;5908548;29;110653;-68
2023/04/30 09:31:20;;;;;;;6.90;5.07;;;;;;;21.46;37.28;94812.25;5937897;29;109039;-65
2023/04/30 09:34:34;;;;;;;6.47;5.80;;;;;;;21.63;37.21;94797.44;5927528;29;109089;-67
2023/04/30 09:37:37;;;;;;;6.20;5.50;;;;;;;21.73;37.93;94799.84;5932732;29;109094;-67
2023/04/30 09:40:44;;;;;;;5.30;4.80;;;;;;;21.78;38.29;94795.13;5932981;29;108989;-73
2023/04/30 09:43:47;;;;;;;6.50;6.00;;;;;;;21.84;38.60;94798.47;5928684;29;109002;-70
2023/04/30 09:46:50;;;;;;;5.80;5.30;;;;;;;21.85;39.01;94783.31;5928933;29;109140;-68
2023/04/30 09:49:53;;;;;;;7.00;5.07;;;;;;;21.98;39.53;94795.69;5936735;29;108939;-67
2023/04/30 09:53:06;;;;;;;7.03;6.33;;;;;;;22.00;39.53;94786.28;5922784;29;109229;-66
2023/04/30 09:56:14;;;;;;;6.50;5.90;;;;;;;21.96;40.35;94785.34;5926480;29;108983;-67
2023/04/30 09:59:21;;;;;;;9.30;7.37;;;;;;;21.89;41.87;94785.03;5913777;29;109955;-67
2023/04/30 10:02:26;;;;;;;10.00;8.37;;;;;;;21.89;42.53;94790.34;5920323;29;108962;-67
2023/04/30 10:05:29;;;;;;;8.60;7.80;;;;;;;21.87;42.27;94789.09;5928179;29;109036;-67
2023/04/30 10:08:37;;;;;;;10.47;9.37;;;;;;;21.86;42.93;94780.31;5930012;29;109032;-67
2023/04/30 10:11:44;;;;;;;8.83;7.80;;;;;;;21.75;43.07;94766.47;5942811;29;109035;-67
2023/04/30 10:14:52;;;;;;;8.77;7.97;;;;;;;21.83;42.34;94780.13;5910779;29;109597;-66
2023/04/30 10:18:00;;;;;;;8.30;7.50;;;;;;;21.80;42.61;94773.53;5929330;29;108890;-66
2023/04/30 10:21:09;;;;;;;10.00;7.40;;;;;;;21.82;42.62;94774.03;5944286;29;108998;-66
2023/04/30 10:24:13;;;;;;;7.87;7.00;;;;;;;21.78;42.53;94759.72;5932139;29;108891;-65
2023/04/30 10:27:18;;;;;;;8.17;7.37;;;;;;;21.83;42.28;94766.81;5932526;29;109054;-65
2023/04/30 10:30:22;;;;;;;7.10;6.50;;;;;;;21.74;42.48;94754.25;5904379;29;108972;-64
2023/04/30 10:33:33;;;;;;;7.50;6.80;;;;;;;21.77;42.32;94758.94;5917461;29;108866;-64
2023/04/30 10:36:43;;;;;;;7.50;6.80;;;;;;;21.73;41.85;94776.66;5912416;29;110446;-68
2023/04/30 10:39:47;;;;;;;7.90;6.30;;;;;;;21.73;42.01;94805.94;5948173;29;108892;-65
2023/04/30 10:42:54;;;;;;;7.70;7.00;;;;;;;21.69;42.12;94815.66;5927124;29;108954;-65
2023/04/30 10:45:58;;;;;;;6.83;6.23;;;;;;;21.69;42.07;94814.88;5924908;29;108925;-65
2023/04/30 10:49:01;;;;;;;7.50;6.90;;;;;;;21.67;42.27;94827.69;5916948;29;109687;-65
2023/04/30 10:52:05;;;;;;;6.90;6.30;;;;;;;21.66;42.33;94834.88;5928875;29;108924;-64
2023/04/30 10:55:09;;;;;;;12.43;6.50;;;;;;;21.70;42.04;94824.44;5939783;29;108966;-68
2023/04/30 10:58:26;;;;;;;6.67;6.03;;;;;;;21.71;41.70;94826.78;5917995;29;108849;-64
2023/04/30 11:01:29;;;;;;;7.60;6.90;;;;;;;21.69;41.51;94820.97;5926525;29;108963;-65
2023/04/30 11:04:33;;;;;;;7.67;7.00;;;;;;;21.70;41.31;94806.56;5935281;29;108838;-65
2023/04/30 11:07:36;;;;;;;6.60;6.10;;;;;;;21.74;41.81;94820.03;5921249;29;108909;-64
2023/04/30 11:10:57;;;;;;;6.10;5.60;;;;;;;21.77;41.71;94809.56;5907749;29;109032;-65
2023/04/30 11:14:02;;;;;;;5.97;5.47;;;;;;;21.78;41.24;94803.13;5942090;29;108937;-66
2023/04/30 11:17:05;;;;;;;6.20;5.60;;;;;;;21.80;41.96;94803.59;5934591;29;108963;-66
2023/04/30 11:20:12;;;;;;;6.23;5.63;;;;;;;21.76;41.93;94796.53;5932549;29;109152;-64
2023/04/30 11:23:17;;;;;;;5.80;5.30;;;;;;;21.79;41.47;94790.59;5937055;29;109107;-65
2023/04/30 11:27:07;;;;;;;5.80;5.30;;;;;;;21.83;41.67;94796.91;5942620;29;108954;-59
2023/04/30 11:30:14;;;;;;;5.80;5.40;;;;;;;21.79;41.86;94786.06;5931596;29;109930;-60
2023/04/30 11:33:17;;;;;;;6.30;4.80;;;;;;;21.83;41.65;94790.78;5918482;29;108895;-61
2023/04/30 11:36:20;;;;;;;6.13;5.03;;;;;;;21.83;41.58;94793.44;5933501;29;108957;-60
2023/04/30 11:39:24;;;;;;;6.13;5.30;;;;;;;21.84;41.80;94803.78;5941818;29;108923;-63
2023/04/30 11:42:28;;;;;;;6.30;4.73;;;;;;;21.81;41.75;94804.38;5931731;29;108953;-59
2023/04/30 11:45:33;;;;;;;5.27;4.97;;;;;;;21.81;41.51;94799.84;5914533;29;108916;-59
2023/04/30 11:48:37;;;;;;;5.87;4.23;;;;;;;21.81;41.63;94791.84;5925331;29;108872;-60
2023/04/30 11:51:41;;;;;;;4.97;4.57;;;;;;;21.84;41.87;94795.81;5930146;29;108881;-60
2023/04/30 11:54:44;;;;;;;4.50;4.20;;;;;;;21.84;41.55;94798.47;5925701;29;109021;-60
2023/04/30 11:57:48;;;;;;;4.87;4.57;;;;;;;21.86;41.75;94806.97;5925597;29;108974;-60
2023/04/30 12:00:53;;;;;;;5.70;5.10;;;;;;;21.85;42.02;94809.94;5913367;29;108956;-60
2023/04/30 12:03:56;;;;;;;5.90;5.23;;;;;;;21.87;41.80;94805.88;5924164;29;109029;-61
2023/04/30 12:07:01;;;;;;;4.97;4.57;;;;;;;21.88;41.59;94804.78;5916593;29;108970;-60
2023/04/30 12:10:04;;;;;;;5.07;4.67;;;;;;;21.90;41.88;94796.47;5943018;29;109002;-60
2023/04/30 12:13:08;;;;;;;4.57;4.23;;;;;;;21.91;41.72;94804.16;5927862;29;108939;-61
2023/04/30 12:16:13;;;;;;;4.63;4.33;;;;;;;21.94;42.18;94794.75;5923769;29;108917;-60
2023/04/30 12:19:17;;;;;;;4.57;4.20;;;;;;;21.94;41.77;94797.41;5912620;29;108895;-62
2023/04/30 12:22:20;;;;;;;4.73;4.33;;;;;;;21.93;42.02;94801.94;5935789;29;109086;-61
2023/04/30 12:25:24;;;;;;;4.73;4.33;;;;;;;21.91;42.04;94795.38;5931333;29;108985;-60
2023/04/30 12:28:28;;;;;;;5.13;4.63;;;;;;;21.86;42.34;94796.31;5921506;29;108903;-64
2023/04/30 12:31:33;;;;;;;4.57;4.23;;;;;;;21.89;42.15;94822.31;5925685;29;108957;-62
2023/04/30 12:34:38;;;;;;;4.67;4.37;;;;;;;21.84;42.23;94819.00;5935639;29;108820;-60
2023/04/30 12:37:45;;;;;;;4.60;4.20;;;;;;;21.89;41.98;94834.84;5923664;29;108999;-60
2023/04/30 12:40:49;;;;;;;4.53;4.03;;;;;;;21.85;42.48;94817.94;5913837;29;108992;-61
2023/04/30 12:43:52;;;;;;;4.30;4.00;;;;;;;21.85;42.21;94820.59;5941159;29;109031;-60
2023/04/30 12:46:59;;;;;;;4.50;4.10;;;;;;;21.84;42.21;94803.00;5923527;29;109105;-61
2023/04/30 12:50:03;;;;;;;4.00;3.73;;;;;;;21.86;42.14;94808.84;5923004;29;108955;-60
2023/04/30 12:53:06;;;;;;;4.50;4.20;;;;;;;21.85;42.51;94809.94;5931083;29;108967;-62
2023/04/30 12:56:14;;;;;;;4.10;3.70;;;;;;;21.84;42.38;94803.78;5931514;29;108913;-60
2023/04/30 12:59:17;;;;;;;4.27;3.97;;;;;;;21.79;42.84;94802.03;5927508;29;109031;-60
2023/04/30 13:02:24;;;;;;;3.90;3.60;;;;;;;21.90;42.88;94813.22;5932626;29;109003;-61
2023/04/30 13:05:27;;;;;;;4.23;3.93;;;;;;;21.94;42.79;94808.06;5896847;29;109074;-59
2023/04/30 13:08:31;;;;;;;3.93;3.73;;;;;;;21.94;42.87;94800.84;5936670;29;108923;-60
2023/04/30 13:11:44;;;;;;;5.00;4.50;;;;;;;21.88;42.72;94788.78;5939760;29;108934;-61
2023/04/30 13:14:47;;;;;;;4.93;4.60;;;;;;;21.96;42.67;94798.66;5934870;29;108911;-60
2023/04/30 13:17:52;;;;;;;3.93;3.63;;;;;;;21.96;42.69;94796.00;5927493;29;108997;-60
2023/04/30 13:20:55;;;;;;;3.90;3.60;;;;;;;21.89;43.10;94786.91;5925620;29;108932;-60
2023/04/30 13:23:58;;;;;;;4.33;3.93;;;;;;;21.89;43.27;94785.03;5926525;29;108950;-60
2023/04/30 13:27:02;;;;;;;5.30;4.80;;;;;;;21.83;43.08;94770.25;5922856;29;109343;-61
2023/04/30 13:30:07;;;;;;;5.50;5.10;;;;;;;21.80;42.90;94768.19;5949242;29;108880;-63
2023/04/30 13:33:11;;;;;;;5.90;5.43;;;;;;;21.81;42.29;94762.56;5930746;29;108982;-63
2023/04/30 13:36:15;;;;;;;6.10;5.50;;;;;;;21.85;42.39;94751.34;5925834;29;108905;-62
2023/04/30 13:39:18;;;;;;;6.10;5.70;;;;;;;21.84;41.95;94749.72;5916728;29;109008;-62
2023/04/30 13:42:21;;;;;;;8.80;6.33;;;;;;;21.84;42.48;94755.06;5926063;29;108965;-63
2023/04/30 13:45:25;;;;;;;7.00;6.30;;;;;;;21.89;42.87;94750.41;5926595;29;108975;-62
2023/04/30 13:48:29;;;;;;;8.70;7.00;;;;;;;21.87;42.48;94752.59;5919904;29;110283;-61
2023/04/30 13:51:32;;;;;;;7.70;6.90;;;;;;;21.91;42.64;94758.84;5920892;29;109571;-61
2023/04/30 13:54:36;;;;;;;10.00;8.70;;;;;;;21.96;42.64;94758.69;5918486;29;109049;-60
2023/04/30 13:57:39;;;;;;;14.43;8.43;;;;;;;21.84;42.13;94745.19;5940192;29;108952;-61
2023/04/30 14:00:42;;;;;;;11.47;9.03;;;;;;;21.78;42.57;94752.53;5915083;29;108972;-60
2023/04/30 14:03:47;;;;;;;8.87;8.00;;;;;;;21.80;42.54;94752.22;5925231;29;108948;-60
2023/04/30 14:06:55;;;;;;;8.63;7.93;;;;;;;21.78;41.92;94755.19;5926599;29;108941;-60
2023/04/30 14:09:58;;;;;;;8.87;8.17;;;;;;;21.75;42.27;94757.69;5926188;29;108902;-67
2023/04/30 14:13:01;;;;;;;8.20;7.50;;;;;;;21.75;41.76;94744.38;5915700;29;108900;-61